WetterOnline ( https://www.wetteronline.de )

Wetter aktuell Werl

Aktuelles Wetter: Werl (84m)

6-stündlich | Neueste Meldungen
Ortszeit Temperatur Wetter
Fr, 18.10. 14:00 -° C bedeckt
Fr, 18.10. 8:00 14.2° C bedeckt
Fr, 18.10. 2:00 14.6° C bedeckt
Do, 17.10. 20:00 15.5° C leichter Regen
Do, 17.10. 14:00 16.1° C bewölkt
Do, 17.10. 8:00 14.4° C bedeckt
Do, 17.10. 2:00 14.6° C Regen
Mi, 16.10. 20:00 14.5° C bedeckt
Ortszeit Temperatur Wetter
Fr, 18.10. 15:00 12.6° C bedeckt
Fr, 18.10. 14:50 12.6° C bedeckt
Fr, 18.10. 14:40 12.3° C bedeckt
Fr, 18.10. 14:30 12.2° C bedeckt
Fr, 18.10. 14:20 12.2° C bedeckt
Fr, 18.10. 14:10 12.2° C leichter Regen
Fr, 18.10. 14:00 -° C bedeckt
Fr, 18.10. 13:30 -° C starker Regen
Fr, 18.10. 13:00 17.6° C leicht bewölkt
Fr, 18.10. 12:30 17.6° C wolkig
Fr, 18.10. 12:00 17.4° C fast wolkenlos
Ortszeit Relative Feuchte Sichtweite
Fr, 18.10. 14:00 - 70 km
Fr, 18.10. 8:00 78% 70 km
Fr, 18.10. 2:00 85% 70 km
Do, 17.10. 20:00 82% 65 km
Do, 17.10. 14:00 77% 70 km
Do, 17.10. 8:00 82% 70 km
Do, 17.10. 2:00 78% 70 km
Mi, 16.10. 20:00 80% 70 km
Ortszeit Relative Feuchte Sichtweite
Fr, 18.10. 15:00 72% 70 km
Fr, 18.10. 14:50 72% -
Fr, 18.10. 14:40 74% -
Fr, 18.10. 14:30 76% 70 km
Fr, 18.10. 14:20 76% -
Fr, 18.10. 14:10 77% -
Fr, 18.10. 14:00 - 70 km
Fr, 18.10. 13:30 - 9 km
Fr, 18.10. 13:00 62% 21 km
Fr, 18.10. 12:30 63% 30 km
Fr, 18.10. 12:00 66% 30 km
Ortszeit Niederschlagsmenge Niederschlagsart
Fr, 18.10. 14:00 1 l/m2 in 6 Std. Regen, Niederschlag
Fr, 18.10. 8:00 0.1 l/m2 in 12 Std. -
Fr, 18.10. 2:00 0.1 l/m2 in 6 Std. Regen
Do, 17.10. 20:00 0.1 l/m2 in 12 Std. Regen
Do, 17.10. 14:00 0.1 l/m2 in 6 Std. Regen
Do, 17.10. 8:00 0.2 l/m2 in 12 Std. Regen
Do, 17.10. 2:00 0.2 l/m2 in 6 Std. Regen
Mi, 16.10. 20:00 0.1 l/m2 in 12 Std. -
Ortszeit Niederschlagsmenge Niederschlagsart
Fr, 18.10. 15:00 0.1 l/m2 in 1 Std. Regen
Fr, 18.10. 14:50 keine Meldung -
Fr, 18.10. 14:40 keine Meldung -
Fr, 18.10. 14:30 0.1 l/m2 in 1 Std. Schneeregen
Fr, 18.10. 14:20 keine Meldung -
Fr, 18.10. 14:10 keine Meldung -
Fr, 18.10. 14:00 1.4 l/m2 in 1 Std. Regen, Niederschlag
Fr, 18.10. 13:30 1.1 l/m2 in 1 Std. -
Fr, 18.10. 13:00 0.0 l/m2 in 1 Std. -
Fr, 18.10. 12:30 0.0 l/m2 in 1 Std. -
Fr, 18.10. 12:00 0.0 l/m2 in 1 Std. -
Ortszeit Stärke Spitze Richtung
km/h Bft. km/h Grad Sektor
Fr, 18.10. 14:00 25 4 79 210° SW
Fr, 18.10. 8:00 17 3 33 180° S
Fr, 18.10. 2:00 11 2 29 210° SW
Do, 17.10. 20:00 11 2 29 180° S
Do, 17.10. 14:00 18 3 40 250° W
Do, 17.10. 8:00 17 3 39 200° S
Do, 17.10. 2:00 18 3 36 190° S
Mi, 16.10. 20:00 17 3 37 190° S
Ortszeit Stärke Spitze Richtung
km/h Bft. km/h Grad Sektor
Fr, 18.10. 15:00 25 4 47 200° S
Fr, 18.10. 14:50 25 4 - 200° S
Fr, 18.10. 14:40 26 4 - 210° SW
Fr, 18.10. 14:30 29 5 47 210° SW
Fr, 18.10. 14:20 29 5 - 210° SW
Fr, 18.10. 14:10 28 4 - 210° SW
Fr, 18.10. 14:00 25 4 79 210° SW
Fr, 18.10. 13:30 32 5 79 230° SW
Fr, 18.10. 13:00 32 5 54 180° S
Fr, 18.10. 12:30 29 5 47 180° S
Fr, 18.10. 12:00 24 4 43 180° S
Ortszeit Untergrenze Bedeckung Gattung
total tief tief mittel hoch
Fr, 18.10. 14:00 1800 m 8/8 8/8 - - -
Fr, 18.10. 8:00 3000 m 8/8 8/8 - - -
Fr, 18.10. 2:00 1200 m 8/8 8/8 - - -
Do, 17.10. 20:00 1020 m 8/8 8/8 - - -
Do, 17.10. 14:00 570 m 7/8 7/8 - - -
Do, 17.10. 8:00 630 m 8/8 8/8 - - -
Do, 17.10. 2:00 1410 m 8/8 8/8 - - -
Mi, 16.10. 20:00 960 m 8/8 8/8 - - -
Ortszeit Bedeckungsgrad in Achtel und Wolkenuntergrenze
Fr, 18.10. 15:00 4(1800m) 7(2100m) 8(2700m)
Fr, 18.10. 14:50 4(1800m) 7(2100m) 8(2700m)
Fr, 18.10. 14:40 1(1500m) 7(2100m) 8(2700m)
Fr, 18.10. 14:30 1(1440m) 5(1800m) 8(2100m)
Fr, 18.10. 14:20 1(1440m) 5(1800m) 8(2100m)
Fr, 18.10. 14:10 2(1440m) 5(1800m) 8(2100m)
Fr, 18.10. 14:00 8(1800m) 8(2100m)
Fr, 18.10. 13:30 4(1200m) 7(1470m) 7(2100m)
Fr, 18.10. 13:00 2(1170m) 4(1500m) 4(2400m)
Fr, 18.10. 12:30 1(1050m) 5(2100m)
Fr, 18.10. 12:00 1(2100m)
Ortszeit Luftdruck NN (hPa) Tendenz (hPa in 3 Std.)
Fr, 18.10. 14:00 1006 - 0,4
Fr, 18.10. 8:00 1007 - 2,2
Fr, 18.10. 2:00 1010 - 0,4
Do, 17.10. 20:00 1010 - 0,4
Do, 17.10. 14:00 1011 + 0,6
Do, 17.10. 8:00 1009 + 0,6
Do, 17.10. 2:00 1009 - 0,4
Mi, 16.10. 20:00 1009 + 0,2
Ortszeit Luftdruck NN (hPa) Tendenz (hPa in 3 Std.)
Fr, 18.10. 15:00 1006 + 0,4
Fr, 18.10. 14:50 1006 keine Meldung
Fr, 18.10. 14:40 1006 keine Meldung
Fr, 18.10. 14:30 1006 + 0,2
Fr, 18.10. 14:20 1006 keine Meldung
Fr, 18.10. 14:10 1006 keine Meldung
Fr, 18.10. 14:00 1006 - 0,4
Fr, 18.10. 13:30 1006 - 0,2
Fr, 18.10. 13:00 1004 - 2,3
Fr, 18.10. 12:30 1005 - 1,8
Fr, 18.10. 12:00 1005 - 1,3
Ortszeit Schneehöhe (cm)
Fr, 18.10. 14:00 0
Fr, 18.10. 8:00 0
Fr, 18.10. 2:00 0
Do, 17.10. 20:00 0
Do, 17.10. 14:00 0
Do, 17.10. 8:00 0
Do, 17.10. 2:00 0
Mi, 16.10. 20:00 0
Ortszeit Schneehöhe (cm)
Fr, 18.10. 15:00 0
Fr, 18.10. 14:50 0
Fr, 18.10. 14:40 0
Fr, 18.10. 14:30 0
Fr, 18.10. 14:20 0
Fr, 18.10. 14:10 0
Fr, 18.10. 14:00 0
Fr, 18.10. 13:30 0
Fr, 18.10. 13:00 0
Fr, 18.10. 12:30 0
Fr, 18.10. 12:00 0
Link zu dieser Seite / Seite empfehlen

Das Wetter in ...